Barnes Municipal Airport Westfield,Springfield US
ICAO: KBAF
IATA: BAF
Category: Medium
Scheduled Services: No

Elevation: 271 ft
TransAlt. 18000 ft.

Airport Communications:
BRADLEY APP/DEP:125.35
ATIS:127.1
BRADLEY CLNC DEL:121.7
CTAF:118.9
GND:121.7
ARNG OPS:46.75
ANG OPS CNTR:30.3
BURLINGTON RDO:113
WESTFIELD TWR:118.9

KBAF Zoom In..

If you have problems with the map follow the link
https://www.worldairports.se/pages/airport.php?
ICAO=KBAF

Runways:

(A) RW 02 length 9000 ft width 150 ft
---- / hdg 24

(B) RW 15 length 5000 ft width 100 ft
---- / hdg 154

(C) RW 20 length 9000 ft width 150 ft
ILS 111.90 / hdg 204

(D) RW 33 length 5000 ft width 100 ft
---- / hdg 334

Location; KBAF
Day. 22 / Time. 12.53 Zulu
* Altimeter: 30.46
* Temperature: -15° c. -5°f.
* Wind from: 000° Speed 00 kn.
Dewpoint: -18° c.
Visibility: 10 Statute Miles.
Clouds: Clear (automated report).

KBAF 221253Z 00000KT 10SM CLR M15/M18 A3046


Wind - Calm.

 
 
jpsmedia worldairports.se 2020   terms of use